Latest Weather Observations for Parafield

IDS60801

Issued at 10:51 am CST Tuesday 16 August 2022 (issued every 10 minutes, with the page automatically refreshed every 10 minutes)

About weather observations | Map of weather stations | Latest weather observations for SA | Other Formats
Station Details ID: 023013 Name: PARAFIELD AIRPORT Lat: -34.80 Lon: 138.63 Height: 9.5 m
Data from the previous 72 hours. | See also: Recent months at Parafield
Date/Time
CST
Temp
°C
App
Temp
°C
Dew
Point
°C
Rel
Hum
%
Delta-T
°C
Wind Press
QNH
hPa
Press
MSL
hPa
Rain since
9am
mm
Dir  Spd
km/h
Gust
km/h
Spd
kts
Gust
kts
16/10:30am 14.3 11.5 8.5 68 2.9 SSW 13 20 7 11 1020.8 1020.9 0.0
16/10:00am 14.2 11.6 9.4 73 2.5 SSW 13 19 7 10 1020.5 1020.6 0.0
16/09:30am 13.6 11.5 11.0 84 1.4 SSW 13 20 7 11 1020.3 1020.4 0.0
16/09:00am 12.1 10.6 10.5 90 0.8 S 9 13 5 7 1020.0 1020.1 1.4
16/08:30am 11.1 11.3 10.6 97 0.3 CALM 0 6 0 3 1020.1 1020.2 1.4
16/08:04am 10.6 10.7 10.3 98 0.2 CALM 0 0 0 0 1019.7 1019.8 1.4
16/08:00am 10.3 10.4 10.0 98 0.2 CALM 0 0 0 0 1019.7 1019.8 1.4
16/07:30am 8.9 8.6 8.6 98 0.1 CALM 0 0 0 0 1019.5 1019.6 1.4
16/07:06am 8.4 8.0 8.1 98 0.1 CALM 0 6 0 3 1019.2 1019.3 1.4
16/07:00am 8.2 7.0 7.9 98 0.1 E 4 7 2 4 1019.1 1019.2 1.4
16/06:30am 7.0 5.1 6.7 98 0.1 N 6 9 3 5 1018.5 1018.6 1.4
16/06:00am 6.4 4.2 6.1 98 0.1 ENE 7 11 4 6 1018.0 1018.1 1.4
16/05:55am 6.4 3.8 6.1 98 0.1 ENE 9 11 5 6 1018.0 1018.1 1.4
16/05:30am 4.8 3.6 4.5 98 0.1 CALM 0 0 0 0 1018.0 1018.1 1.4
16/05:00am 5.7 4.6 5.3 97 0.2 CALM 0 0 0 0 1017.1 1017.2 1.4
16/04:30am 5.7 4.3 5.3 97 0.2 E 2 6 1 3 1016.3 1016.3 1.4
16/04:00am 5.9 3.2 5.5 97 0.2 ENE 9 9 5 5 1016.3 1016.3 1.4
16/03:30am 6.3 5.0 5.9 97 0.2 W 2 7 1 4 1016.3 1016.3 1.4
16/03:23am 7.0 4.9 6.6 97 0.2 NNW 7 9 4 5 1016.2 1016.2 1.4
16/03:19am 7.1 4.6 6.7 97 0.2 N 9 9 5 5 1016.2 1016.2 1.4
16/03:00am 7.0 6.2 6.7 98 0.1 CALM 0 0 0 0 1016.1 1016.1 1.4
16/02:30am 6.5 4.5 6.1 97 0.2 N 6 7 3 4 1016.1 1016.1 1.4
16/02:00am 6.5 5.6 5.9 96 0.3 CALM 0 0 0 0 1016.2 1016.2 1.4
16/01:34am 6.8 5.8 5.7 93 0.5 CALM 0 0 0 0 1016.1 1016.1 1.4
16/01:30am 7.3 6.4 6.2 93 0.5 CALM 0 0 0 0 1016.1 1016.1 1.4
16/01:00am 9.0 7.8 7.9 93 0.5 SSW 4 6 2 3 1016.0 1016.0 1.4
16/12:30am 9.7 7.2 8.0 89 0.8 SW 11 17 6 9 1015.8 1015.8 1.4
16/12:00am 9.9 9.0 9.3 96 0.3 SSW 4 24 2 13 1015.7 1015.7 1.4
 
Date/Time
CST
Temp
°C
App
Temp
°C
Dew
Point
°C
Rel
Hum
%
Delta-T
°C
Wind Press
QNH
hPa
Press
MSL
hPa
Rain since
9am
mm
Dir  Spd
km/h
Gust
km/h
Spd
kts
Gust
kts
15/11:59pm 9.7 9.1 9.1 96 0.3 SSW 2 24 1 13 1015.8 1015.8 1.4
15/11:30pm 9.7 9.4 8.8 94 0.4 CALM 0 0 0 0 1015.5 1015.5 0.8
15/11:00pm 10.4 10.3 9.6 95 0.4 CALM 0 0 0 0 1015.2 1015.2 0.8
15/10:55pm 10.5 10.5 9.7 95 0.4 CALM 0 0 0 0 1015.1 1015.1 0.8
15/10:40pm 10.7 10.7 9.9 95 0.4 CALM 0 0 0 0 1015.1 1015.1 0.8
15/10:32pm 10.6 10.6 9.8 95 0.4 CALM 0 0 0 0 1015.0 1015.0 0.6
15/10:30pm 10.7 10.7 9.9 95 0.4 CALM 0 0 0 0 1015.0 1015.0 0.6
15/10:16pm 10.4 10.3 9.3 93 0.5 CALM 0 0 0 0 1014.9 1014.9 0.6
15/10:00pm 10.2 10.0 9.0 92 0.6 CALM 0 0 0 0 1014.5 1014.5 0.6
15/09:30pm 10.6 10.1 9.2 91 0.7 SSW 2 6 1 3 1014.4 1014.4 0.6
15/09:00pm 10.9 8.7 9.2 89 0.8 SW 11 13 6 7 1014.2 1014.2 0.6
15/08:30pm 10.7 9.3 9.6 93 0.6 SW 7 7 4 4 1013.8 1013.8 0.4
15/08:00pm 11.0 9.8 9.6 91 0.7 WSW 6 7 3 4 1013.6 1013.6 0.4
15/07:30pm 11.2 9.4 9.6 90 0.8 SSW 9 11 5 6 1013.3 1013.3 0.4
15/07:00pm 11.4 8.8 9.5 88 1.0 SSW 13 17 7 9 1013.0 1013.0 0.4
15/06:30pm 11.4 7.5 8.8 84 1.3 SW 19 20 10 11 1012.4 1012.4 0.2
15/06:00pm 12.4 8.7 10.3 87 1.1 WSW 20 26 11 14 1011.6 1011.6 0.2
15/05:30pm 12.7 9.5 10.1 84 1.3 WSW 17 22 9 12 1011.3 1011.3 0.2
15/05:27pm 12.9 9.8 10.3 84 1.3 WSW 17 22 9 12 1011.2 1011.2 0.2
15/05:12pm 12.9 9.4 10.1 83 1.4 W 19 26 10 14 1011.0 1011.0 0.2
15/05:10pm 12.9 9.4 10.1 83 1.4 W 19 26 10 14 1010.9 1010.9 0.2
15/05:00pm 13.2 9.5 10.2 82 1.6 W 20 28 11 15 1010.7 1010.7 0.2
15/04:54pm 13.3 9.8 10.3 82 1.6 W 19 26 10 14 1010.7 1010.7 0.2
15/04:30pm 14.5 10.7 9.9 74 2.4 WSW 20 26 11 14 1010.3 1010.3 0.2
15/04:00pm 14.7 11.2 8.9 68 2.9 WSW 17 24 9 13 1010.1 1010.1 0.2
15/03:30pm 14.7 10.9 8.9 68 3.0 WSW 19 24 10 13 1009.9 1009.9 0.2
15/03:00pm 15.5 11.5 9.0 65 3.3 WSW 20 26 11 14 1009.8 1009.8 0.2
15/02:30pm 14.1 10.9 9.9 76 2.2 W 17 20 9 11 1009.7 1009.7 0.2
15/02:00pm 14.1 10.2 9.3 73 2.5 WSW 20 28 11 15 1009.7 1009.7 0.2
15/01:30pm 14.7 11.2 10.1 74 2.4 W 19 28 10 15 1009.8 1009.8 0.2
15/01:00pm 14.0 10.6 10.6 80 1.8 W 19 24 10 13 1010.2 1010.2 0.2
15/12:30pm 13.9 10.2 9.5 75 2.3 WSW 19 24 10 13 1010.4 1010.4 0.2
15/12:00pm 14.2 10.9 10.8 80 1.8 WSW 19 24 10 13 1010.5 1010.5 0.2
15/11:30am 14.2 11.2 10.6 79 1.9 WSW 17 26 9 14 1010.7 1010.7 0.2
15/11:23am 13.9 11.2 10.3 79 1.9 W 15 20 8 11 1010.6 1010.6 0.2
15/11:00am 12.6 10.1 9.8 83 1.4 W 13 22 7 12 1010.8 1010.8 0.2
15/10:30am 13.4 10.6 11.5 88 1.0 WNW 17 20 9 11 1010.8 1010.8 0.0
15/10:00am 12.7 12.0 11.3 91 0.7 NW 6 15 3 8 1011.1 1011.1 0.0
15/09:30am 11.8 10.3 10.4 91 0.7 NNW 9 13 5 7 1011.2 1011.2 0.0
15/09:00am 11.1 9.4 9.7 91 0.7 N 9 11 5 6 1011.1 1011.1 0.2
15/08:30am 10.5 8.7 9.4 93 0.5 N 9 11 5 6 1011.0 1011.0 0.2
15/08:20am 10.3 8.4 9.2 93 0.5 NNE 9 13 5 7 1011.0 1011.0 0.2
15/08:00am 9.8 7.9 9.2 96 0.3 NNE 9 11 5 6 1011.0 1011.0 0.2
15/07:30am 8.8 7.0 8.0 95 0.4 N 7 9 4 5 1010.8 1010.8 0.2
15/07:05am 9.5 7.6 8.9 96 0.3 N 9 11 5 6 1010.7 1010.7 0.2
15/07:00am 9.5 7.6 8.9 96 0.3 N 9 11 5 6 1010.7 1010.7 0.2
15/06:30am 9.2 7.5 8.4 95 0.4 N 7 9 4 5 1010.8 1010.8 0.2
15/06:00am 9.8 8.3 9.2 96 0.3 N 7 11 4 6 1010.8 1010.8 0.2
15/05:30am 9.9 8.1 9.3 96 0.3 N 9 11 5 6 1010.8 1010.8 0.2
15/05:00am 10.0 7.8 9.4 96 0.3 NNW 11 15 6 8 1010.7 1010.7 0.2
15/04:30am 9.5 7.6 8.9 96 0.3 N 9 11 5 6 1010.6 1010.6 0.2
15/04:00am 9.8 7.9 9.2 96 0.3 N 9 11 5 6 1010.7 1010.7 0.2
15/03:43am 9.7 7.8 9.2 97 0.2 N 9 11 5 6 1010.9 1010.9 0.2
15/03:30am 9.4 8.4 8.8 96 0.3 NNE 4 7 2 4 1011.0 1011.0 0.2
15/03:00am 9.6 7.7 9.0 96 0.3 N 9 13 5 7 1011.2 1011.2 0.2
15/02:30am 9.7 7.4 9.1 96 0.3 NNE 11 13 6 7 1011.4 1011.4 0.2
15/02:00am 9.6 7.3 9.0 96 0.3 NE 11 13 6 7 1011.8 1011.8 0.2
15/01:58am 9.6 7.3 9.0 96 0.3 NE 11 13 6 7 1011.8 1011.8 0.2
15/01:51am 9.5 7.2 8.9 96 0.3 NNE 11 13 6 7 1012.0 1012.0 0.2
15/01:32am 9.5 7.5 8.7 95 0.4 N 9 13 5 7 1012.4 1012.4 0.0
15/01:30am 9.5 7.5 8.7 95 0.4 N 9 13 5 7 1012.4 1012.4 0.0
15/01:00am 9.5 7.9 8.9 96 0.3 N 7 9 4 5 1012.7 1012.7 0.0
15/12:30am 9.1 7.4 8.5 96 0.3 NNE 7 9 4 5 1012.7 1012.7 0.0
15/12:00am 9.1 7.4 8.5 96 0.3 N 7 9 4 5 1012.9 1012.9 0.0
 
Date/Time
CST
Temp
°C
App
Temp
°C
Dew
Point
°C
Rel
Hum
%
Delta-T
°C
Wind Press
QNH
hPa
Press
MSL
hPa
Rain since
9am
mm
Dir  Spd
km/h
Gust
km/h
Spd
kts
Gust
kts
14/11:58pm 9.0 7.3 8.4 96 0.3 N 7 9 4 5 1013.0 1013.0 0.0
14/11:30pm 9.5 7.6 8.9 96 0.3 N 9 11 5 6 1013.1 1013.1 0.0
14/11:00pm 9.3 7.7 8.8 97 0.2 NNE 7 9 4 5 1013.4 1013.4 0.0
14/10:30pm 8.9 6.0 8.3 96 0.3 N 13 17 7 9 1013.5 1013.5 0.0
14/10:00pm 8.5 5.9 7.9 96 0.3 NNE 11 13 6 7 1013.6 1013.6 0.0
14/09:30pm 8.6 6.4 7.8 95 0.4 NE 9 9 5 5 1013.7 1013.7 0.0
14/09:00pm 8.5 6.6 7.7 95 0.4 NE 7 9 4 5 1013.8 1013.8 0.0
14/08:30pm 10.1 8.8 9.3 95 0.4 N 6 6 3 3 1014.0 1014.0 0.0
14/08:00pm 10.4 9.5 9.2 92 0.6 W 4 7 2 4 1013.9 1013.9 0.0
14/07:30pm 11.0 10.9 9.4 90 0.8 CALM 0 0 0 0 1013.8 1013.8 0.0
14/07:00pm 11.8 11.8 9.9 88 1.0 CALM 0 6 0 3 1013.8 1013.8 0.0
14/06:30pm 12.0 9.1 9.6 85 1.2 SW 15 20 8 11 1013.6 1013.6 0.0
14/06:00pm 12.1 10.2 8.9 81 1.6 SW 9 13 5 7 1013.4 1013.4 0.0
14/05:30pm 12.5 10.1 8.8 78 1.8 W 11 15 6 8 1013.6 1013.6 0.0
14/05:00pm 12.5 9.1 9.3 81 1.6 W 17 24 9 13 1013.5 1013.5 0.0
14/04:30pm 13.1 9.9 10.1 82 1.5 W 17 24 9 13 1013.6 1013.6 0.0
14/04:00pm 14.2 10.5 10.0 76 2.2 W 20 24 11 13 1013.5 1013.5 0.0
14/03:30pm 15.2 11.6 9.8 70 2.8 W 19 22 10 12 1013.6 1013.6 0.0
14/03:00pm 15.0 11.1 9.6 70 2.8 WSW 20 26 11 14 1013.7 1013.7 0.0
14/02:30pm 15.4 11.4 9.1 66 3.2 W 20 24 11 13 1013.7 1013.7 0.0
14/02:00pm 15.6 12.3 9.7 68 3.1 W 17 24 9 13 1013.9 1013.9 0.0
14/01:30pm 15.1 11.5 10.5 74 2.4 WSW 20 28 11 15 1014.4 1014.4 0.0
14/01:00pm 14.6 10.9 10.2 75 2.3 WSW 20 28 11 15 1014.6 1014.6 0.0
14/12:30pm 13.7 10.0 10.1 79 1.9 WSW 20 30 11 16 1015.0 1015.0 0.0
14/12:00pm 15.1 12.0 12.2 83 1.6 W 20 28 11 15 1015.1 1015.1 0.0
14/11:30am 15.1 12.0 11.7 80 1.8 WSW 19 26 10 14 1015.3 1015.3 0.0
14/11:19am 14.9 12.1 11.5 80 1.8 WSW 17 24 9 13 1015.3 1015.3 0.0
14/11:00am 14.8 12.3 12.3 85 1.4 W 17 24 9 13 1015.4 1015.4 0.0
14/10:40am 12.9 9.5 10.6 86 1.2 WSW 19 24 10 13 1015.7 1015.7 0.0
14/10:30am 13.0 9.7 10.9 87 1.1 WSW 19 24 10 13 1015.7 1015.7 0.0
14/10:00am 12.5 12.7 11.7 95 0.4 W 2 11 1 6 1015.7 1015.7 0.0
14/09:30am 12.0 12.5 11.5 97 0.3 CALM 0 0 0 0 1015.9 1015.9 0.0
14/09:00am 11.3 11.3 11.0 98 0.2 NW 2 7 1 4 1016.0 1016.0 5.4
14/08:55am 11.2 10.7 10.9 98 0.2 NW 4 7 2 4 1015.9 1015.9 5.4
14/08:30am 10.4 9.1 10.1 98 0.2 NNE 7 9 4 5 1015.7 1015.7 5.2
14/08:00am 9.7 8.3 9.4 98 0.1 N 7 9 4 5 1015.4 1015.4 5.2
14/07:30am 8.6 6.5 8.3 98 0.1 NNE 9 9 5 5 1015.3 1015.3 5.2
14/07:00am 8.8 7.1 8.5 98 0.1 N 7 9 4 5 1014.9 1014.9 5.2
14/06:47am 9.1 7.1 8.8 98 0.1 N 9 13 5 7 1014.6 1014.6 5.2
14/06:30am 8.2 6.0 7.9 98 0.1 N 9 11 5 6 1014.4 1014.4 5.2
14/06:00am 7.6 5.8 7.2 97 0.2 ESE 6 6 3 3 1014.2 1014.2 5.2
14/05:30am 8.6 8.2 8.2 97 0.2 CALM 0 0 0 0 1014.0 1014.0 5.2
14/05:11am 8.9 8.6 8.5 97 0.2 CALM 0 0 0 0 1013.9 1013.9 5.2
14/05:00am 9.1 8.8 8.8 98 0.1 CALM 0 0 0 0 1014.0 1014.0 5.2
14/04:30am 8.6 8.2 8.2 97 0.2 CALM 0 0 0 0 1013.9 1013.9 5.2
14/04:00am 8.7 8.3 8.4 98 0.1 CALM 0 0 0 0 1013.8 1013.8 5.2
14/03:30am 8.9 8.6 8.6 98 0.1 CALM 0 0 0 0 1013.7 1013.7 5.2
14/03:10am 7.5 6.8 7.1 97 0.2 CALM 0 0 0 0 1013.8 1013.8 5.2
14/03:00am 7.7 7.1 7.4 98 0.1 CALM 0 0 0 0 1013.8 1013.8 5.2
14/02:39am 6.5 4.8 5.9 96 0.3 N 4 7 2 4 1014.0 1014.0 5.2
14/02:30am 7.4 5.4 7.0 97 0.2 NNE 7 7 4 4 1014.0 1014.0 5.2
14/02:10am 7.4 6.7 7.0 97 0.2 CALM 0 0 0 0 1014.3 1014.3 5.2
14/02:00am 8.1 7.2 7.8 98 0.1 N 2 7 1 4 1014.4 1014.4 5.2
14/01:30am 6.9 5.7 6.3 96 0.3 NNE 2 7 1 4 1014.5 1014.5 5.2
14/01:00am 7.5 6.8 7.1 97 0.2 CALM 0 0 0 0 1014.5 1014.5 5.2
14/12:30am 7.5 6.8 7.1 97 0.2 CALM 0 0 0 0 1014.5 1014.5 5.2
14/12:00am 6.9 6.0 6.2 95 0.3 CALM 0 0 0 0 1014.5 1014.5 5.2
 
Date/Time
CST
Temp
°C
App
Temp
°C
Dew
Point
°C
Rel
Hum
%
Delta-T
°C
Wind Press
QNH
hPa
Press
MSL
hPa
Rain since
9am
mm
Dir  Spd
km/h
Gust
km/h
Spd
kts
Gust
kts
13/11:30pm 8.1 7.5 7.3 95 0.4 CALM 0 0 0 0 1014.6 1014.6 5.2
13/11:00pm 9.9 9.7 9.1 95 0.4 CALM 0 0 0 0 1014.8 1014.8 5.2
13/10:30pm 10.0 9.8 9.1 94 0.4 CALM 0 0 0 0 1014.8 1014.8 5.2
13/10:00pm 10.3 8.2 9.7 96 0.3 W 11 17 6 9 1014.8 1014.8 5.2
13/09:30pm 9.5 9.3 8.9 96 0.3 CALM 0 0 0 0 1014.8 1014.8 5.2
13/09:00pm 9.1 8.8 8.5 96 0.3 CALM 0 0 0 0 1014.9 1014.9 5.2
13/08:30pm 8.2 7.6 7.4 95 0.4 CALM 0 0 0 0 1014.7 1014.7 5.2
13/08:00pm 10.0 9.8 9.2 95 0.4 CALM 0 0 0 0 1014.4 1014.4 5.2
13/07:30pm 9.5 7.7 8.1 91 0.7 WSW 7 11 4 6 1014.2 1014.2 5.2
13/07:00pm 10.2 8.3 9.0 92 0.6 WSW 9 13 5 7 1014.0 1014.0 5.2
13/06:30pm 10.4 8.0 8.7 89 0.8 WSW 11 15 6 8 1013.7 1013.7 5.2
13/06:00pm 11.1 8.4 8.8 86 1.1 WSW 13 17 7 9 1013.6 1013.6 5.2
13/05:30pm 12.2 9.6 9.4 83 1.4 WSW 13 19 7 10 1013.3 1013.3 5.2
13/05:00pm 13.1 10.2 9.5 79 1.8 WSW 15 20 8 11 1013.3 1013.3 5.2
13/04:30pm 13.8 9.9 8.8 72 2.5 SW 19 28 10 15 1013.1 1013.1 5.2
13/04:00pm 14.1 9.5 8.3 68 2.9 WSW 22 30 12 16 1012.9 1012.9 5.2
13/03:30pm 14.6 10.2 9.0 69 2.9 SW 22 30 12 16 1012.9 1012.9 5.2
13/03:00pm 14.9 10.3 9.7 71 2.7 WSW 24 30 13 16 1013.0 1013.0 5.2
13/02:30pm 14.8 10.5 9.2 69 2.9 SW 22 33 12 18 1012.7 1012.7 5.2
13/02:00pm 15.1 10.5 9.7 70 2.8 WSW 24 32 13 17 1012.9 1012.9 5.2
13/01:30pm 14.9 10.7 9.9 72 2.6 WSW 22 32 12 17 1012.8 1012.8 5.2
13/01:00pm 14.5 10.7 9.7 73 2.5 WSW 20 28 11 15 1013.1 1013.1 5.2
13/12:41pm 14.9 11.3 10.5 75 2.3 WSW 20 26 11 14 1013.4 1013.4 5.2
13/12:30pm 14.5 10.9 10.7 78 2.0 WSW 20 30 11 16 1013.5 1013.5 5.2
13/12:11pm 14.5 11.2 11.5 82 1.6 SW 20 28 11 15 1013.6 1013.6 5.2
13/12:07pm 13.3 9.5 9.9 80 1.7 SW 20 28 11 15 1013.7 1013.7 5.2
13/12:00pm 13.2 8.7 10.2 82 1.6 WSW 24 32 13 17 1013.7 1013.7 5.2
13/11:49am 13.5 10.0 10.9 84 1.4 WSW 20 30 11 16 1013.7 1013.7 5.2
13/11:30am 12.8 8.9 10.7 87 1.1 SW 22 30 12 16 1013.8 1013.8 5.2
13/11:18am 13.5 9.6 12.1 91 0.8 WSW 24 30 13 16 1013.8 1013.8 5.2
13/11:00am 12.1 9.3 11.3 95 0.4 SW 17 26 9 14 1013.8 1013.8 5.2

Other formats

Comma delimited format used in spreadsheet applications
http://www.bom.gov.au/fwo/IDS60801/IDS60801.95677.axf

JavaScript Object Notation format (JSON) in row-major order
http://www.bom.gov.au/fwo/IDS60801/IDS60801.95677.json

Data quality

Most of these data are generated automatically and are frequently updated. Quality checks on data are not normally performed. It is possible for incorrect values to appear. Refer to information at About Latest Weather Observations and please check the disclaimer before using these data.